Time;durP1;ratioP1;P1;durP2;ratioP2;P2;SDS_P1;SDS_P2;PMS_P1;PMS_P2;Temp;Humidity;BMP_temperature;BMP_pressure;BME280_temperature;BME280_humidity;BME280_pressure;Samples;Min_cycle;Max_cycle;Signal;HPM_P1;HPM_P2
2021/01/10 00:00:29;;;;;;;48.22;24.80;;;-1.50;99.90;;;;;;5072412;28;20366;-75
2021/01/10 00:02:56;;;;;;;49.92;24.80;;;-1.40;99.90;;;;;;5071673;28;20032;-74
2021/01/10 00:05:28;;;;;;;46.95;25.48;;;-1.50;99.90;;;;;;5073127;28;20025;-73
2021/01/10 00:07:56;;;;;;;46.15;23.40;;;-1.50;99.90;;;;;;5054654;28;20493;-73
2021/01/10 00:10:22;;;;;;;53.17;25.85;;;-1.60;99.90;;;;;;5072347;28;20024;-73
2021/01/10 00:12:48;;;;;;;45.28;23.52;;;-1.60;99.90;;;;;;5072052;28;20104;-73
2021/01/10 00:15:15;;;;;;;47.72;25.27;;;-1.60;99.90;;;;;;5072101;28;20095;-75
2021/01/10 00:17:44;;;;;;;43.85;22.77;;;-1.60;99.90;;;;;;5072013;28;20028;-75
2021/01/10 00:20:10;;;;;;;45.17;23.77;;;-1.70;99.90;;;;;;5054256;28;20021;-73
2021/01/10 00:22:36;;;;;;;48.15;24.50;;;-1.80;99.90;;;;;;5054051;28;20020;-73
2021/01/10 00:25:05;;;;;;;47.97;26.20;;;-1.80;99.90;;;;;;5071714;28;20388;-73
2021/01/10 00:27:31;;;;;;;50.70;24.83;;;-1.70;99.90;;;;;;5072055;28;20056;-77
2021/01/10 00:29:56;;;;;;;43.28;23.48;;;-1.70;99.90;;;;;;5071777;28;20457;-73
2021/01/10 00:32:22;;;;;;;46.85;24.02;;;-1.70;99.90;;;;;;5072150;28;20086;-73
2021/01/10 00:34:48;;;;;;;48.70;23.83;;;-1.60;99.90;;;;;;5072053;28;20064;-72
2021/01/10 00:37:20;;;;;;;43.65;22.50;;;-1.60;99.90;;;;;;5053774;28;20058;-74
2021/01/10 00:39:47;;;;;;;42.72;21.85;;;-1.60;99.90;;;;;;5071752;28;20077;-73
2021/01/10 00:42:13;;;;;;;41.45;21.67;;;-1.50;99.90;;;;;;5053856;28;20020;-73
2021/01/10 00:44:43;;;;;;;42.15;21.23;;;-1.60;99.90;;;;;;5071126;28;20024;-72
2021/01/10 00:47:10;;;;;;;44.60;22.27;;;-1.60;99.90;;;;;;5071880;28;20481;-72
2021/01/10 00:49:36;;;;;;;36.55;19.92;;;-1.50;99.90;;;;;;5071868;28;20029;-74
2021/01/10 00:52:02;;;;;;;40.90;20.58;;;-1.50;99.90;;;;;;5054304;28;20065;-74
2021/01/10 00:54:29;;;;;;;36.92;20.50;;;-1.40;99.90;;;;;;5074153;28;20043;-74
2021/01/10 00:56:55;;;;;;;37.08;19.73;;;-1.40;99.90;;;;;;5074280;28;20016;-74
2021/01/10 00:59:20;;;;;;;37.47;20.70;;;-1.30;99.90;;;;;;5056109;28;20026;-74
2021/01/10 01:01:46;;;;;;;39.47;21.35;;;-1.30;99.90;;;;;;5055669;28;20108;-74
2021/01/10 01:04:12;;;;;;;39.00;20.48;;;-1.20;99.90;;;;;;5055725;28;20020;-74
2021/01/10 01:06:38;;;;;;;35.78;19.42;;;-1.20;99.90;;;;;;5075727;28;20063;-76
2021/01/10 01:09:05;;;;;;;37.35;19.35;;;-1.20;99.90;;;;;;5054845;28;20389;-73
2021/01/10 01:11:35;;;;;;;29.45;16.63;;;-1.10;99.90;;;;;;5072199;28;20103;-75
2021/01/10 01:14:01;;;;;;;34.55;18.20;;;-1.10;99.90;;;;;;5071096;28;20028;-75
2021/01/10 01:16:26;;;;;;;32.10;16.60;;;-1.00;99.90;;;;;;5072861;28;20082;-73
2021/01/10 01:18:52;;;;;;;26.45;14.82;;;-1.00;99.90;;;;;;5052913;28;20024;-76
2021/01/10 01:21:20;;;;;;;29.05;15.65;;;-1.00;99.90;;;;;;5070994;28;20064;-73
2021/01/10 01:23:46;;;;;;;32.47;16.67;;;-0.90;99.90;;;;;;5074175;28;20480;-74
2021/01/10 01:26:25;;;;;;;26.48;15.07;;;-0.90;99.90;;;;;;5072403;28;20100;-75
2021/01/10 01:28:51;;;;;;;31.02;15.73;;;-0.90;99.90;;;;;;5070950;28;20365;-73
2021/01/10 01:31:20;;;;;;;28.13;15.80;;;-1.00;99.90;;;;;;5051998;28;20526;-74
2021/01/10 01:33:47;;;;;;;30.48;16.58;;;-0.90;99.90;;;;;;5070389;28;20024;-72
2021/01/10 01:36:18;;;;;;;26.20;15.27;;;-0.90;99.90;;;;;;5070058;28;20056;-74
2021/01/10 01:38:45;;;;;;;28.75;16.15;;;-0.90;99.90;;;;;;5073189;28;20017;-70
2021/01/10 01:41:11;;;;;;;27.63;16.00;;;-0.90;99.90;;;;;;5053510;28;20017;-74
2021/01/10 01:43:39;;;;;;;31.48;17.35;;;-0.90;99.90;;;;;;5032923;28;20032;-72
2021/01/10 01:46:07;;;;;;;26.67;15.15;;;-0.80;99.90;;;;;;5032627;28;20031;-72
2021/01/10 01:48:33;;;;;;;26.83;15.40;;;-0.80;99.90;;;;;;5051101;28;20020;-72
2021/01/10 01:51:00;;;;;;;28.50;16.15;;;-0.90;99.90;;;;;;5050623;28;20087;-72
2021/01/10 01:53:26;;;;;;;28.25;16.30;;;-0.80;99.90;;;;;;5049889;28;20098;-72
2021/01/10 01:55:53;;;;;;;28.80;16.02;;;-0.80;99.90;;;;;;5051154;28;20029;-70
2021/01/10 01:58:20;;;;;;;25.95;14.70;;;-0.80;99.90;;;;;;5052334;28;20029;-71
2021/01/10 02:00:46;;;;;;;26.17;15.05;;;-0.70;99.90;;;;;;5051844;28;20096;-74
2021/01/10 02:03:25;;;;;;;28.05;14.65;;;-0.70;99.90;;;;;;5050487;28;20087;-74
2021/01/10 02:05:56;;;;;;;27.95;14.35;;;-0.70;99.90;;;;;;5051053;28;20017;-74
2021/01/10 02:08:26;;;;;;;29.27;14.55;;;-0.70;99.90;;;;;;5051294;28;20109;-74
2021/01/10 02:10:56;;;;;;;28.23;14.85;;;-0.70;99.90;;;;;;5050470;28;20033;-76
2021/01/10 02:13:22;;;;;;;24.55;14.25;;;-0.70;99.90;;;;;;5032198;28;20048;-73
2021/01/10 02:15:52;;;;;;;21.98;13.02;;;-0.70;99.90;;;;;;5050262;28;20032;-74
2021/01/10 02:18:18;;;;;;;23.65;13.23;;;-0.70;99.90;;;;;;5050181;28;20032;-78
2021/01/10 02:20:45;;;;;;;25.65;14.40;;;-0.70;99.90;;;;;;5050548;28;20021;-74
2021/01/10 02:23:24;;;;;;;24.05;13.68;;;-0.60;99.90;;;;;;5031908;28;20036;-74
2021/01/10 02:25:50;;;;;;;28.75;14.20;;;-0.70;99.90;;;;;;5032293;28;20017;-72
2021/01/10 02:28:22;;;;;;;23.98;13.70;;;-0.60;99.90;;;;;;5032132;28;20029;-75
2021/01/10 02:30:48;;;;;;;23.23;12.55;;;-0.60;99.90;;;;;;5049655;28;20052;-72
2021/01/10 02:33:44;;;;;;;28.50;13.77;;;-0.70;99.90;;;;;;5049813;28;20485;-71
2021/01/10 02:36:30;;;;;;;24.42;12.50;;;-0.60;99.90;;;;;;5049961;28;20021;-72
2021/01/10 02:39:10;;;;;;;22.00;12.85;;;-0.60;99.90;;;;;;5049243;28;20025;-71
2021/01/10 02:42:17;;;;;;;21.45;12.60;;;-0.60;99.90;;;;;;5052752;28;20040;-71
2021/01/10 02:45:01;;;;;;;20.80;11.60;;;-0.60;99.90;;;;;;5032325;28;20480;-72
2021/01/10 02:47:27;;;;;;;19.75;11.50;;;-0.60;99.90;;;;;;5051058;28;20033;-74
2021/01/10 02:49:52;;;;;;;24.58;13.20;;;-0.70;99.90;;;;;;5053568;28;20119;-75
2021/01/10 02:52:18;;;;;;;21.92;11.65;;;-0.60;99.90;;;;;;5035908;28;20064;-70
2021/01/10 02:54:44;;;;;;;20.25;12.35;;;-0.60;99.90;;;;;;5053373;28;20025;-71
2021/01/10 02:57:16;;;;;;;23.33;13.57;;;-0.70;99.90;;;;;;5035791;28;20083;-73
2021/01/10 02:59:47;;;;;;;19.83;11.48;;;-0.60;99.90;;;;;;5053631;28;20017;-74
2021/01/10 03:02:14;;;;;;;22.60;12.13;;;-0.60;99.90;;;;;;5054042;28;20028;-76
2021/01/10 03:04:41;;;;;;;18.98;11.18;;;-0.70;99.90;;;;;;5053219;28;20024;-73
2021/01/10 03:07:08;;;;;;;23.00;12.07;;;-0.70;99.90;;;;;;5035454;28;20259;-73
2021/01/10 03:09:34;;;;;;;21.30;11.80;;;-0.70;99.90;;;;;;5035877;28;20029;-74
2021/01/10 03:12:25;;;;;;;20.40;12.23;;;-0.70;99.90;;;;;;5053446;28;20032;-76
2021/01/10 03:14:54;;;;;;;24.08;12.93;;;-0.70;99.90;;;;;;5053775;28;20401;-72
2021/01/10 03:17:40;;;;;;;21.25;11.93;;;-0.70;99.90;;;;;;5054060;28;20021;-72
2021/01/10 03:20:12;;;;;;;22.10;12.45;;;-0.80;99.90;;;;;;5021688;28;20040;-73
2021/01/10 03:22:38;;;;;;;22.10;12.95;;;-0.80;99.90;;;;;;5035368;28;20025;-76
2021/01/10 03:25:05;;;;;;;18.60;11.55;;;-0.70;99.90;;;;;;5053412;28;20489;-74
2021/01/10 03:27:33;;;;;;;21.02;12.13;;;-0.70;99.90;;;;;;5089168;22;20051;-63
2021/01/10 03:29:59;;;;;;;21.75;12.18;;;-0.80;99.90;;;;;;5077565;28;20017;-64
2021/01/10 03:32:25;;;;;;;22.30;12.55;;;-0.80;99.90;;;;;;5073150;28;20021;-64
2021/01/10 03:34:50;;;;;;;23.23;12.90;;;-0.70;99.90;;;;;;5072326;28;20107;-63
2021/01/10 03:37:16;;;;;;;22.48;12.98;;;-0.70;99.90;;;;;;5043983;28;20029;-63
2021/01/10 03:39:43;;;;;;;21.55;12.98;;;-0.70;99.90;;;;;;5052713;28;20320;-63
2021/01/10 03:42:08;;;;;;;22.55;12.63;;;-0.80;99.90;;;;;;5072525;28;20028;-63
2021/01/10 03:44:34;;;;;;;22.17;13.07;;;-0.80;99.90;;;;;;5072341;28;20113;-64
2021/01/10 03:47:00;;;;;;;23.77;11.95;;;-0.80;99.90;;;;;;5072710;28;20718;-63
2021/01/10 03:49:26;;;;;;;22.50;13.00;;;-0.80;99.90;;;;;;5072880;28;20033;-64
2021/01/10 03:51:52;;;;;;;24.33;13.07;;;-0.80;99.90;;;;;;5072758;28;20108;-64
2021/01/10 03:54:17;;;;;;;23.40;13.13;;;-0.90;99.90;;;;;;5072064;28;20039;-65
2021/01/10 03:56:43;;;;;;;21.45;12.75;;;-0.90;99.90;;;;;;5071752;28;20044;-64
2021/01/10 03:59:09;;;;;;;22.52;13.00;;;-1.00;99.90;;;;;;5072149;28;20431;-63
2021/01/10 04:01:35;;;;;;;21.73;12.13;;;-0.90;99.90;;;;;;5072838;28;20024;-64
2021/01/10 04:04:01;;;;;;;22.45;12.90;;;-0.90;99.90;;;;;;5072171;28;20036;-63
2021/01/10 04:06:28;;;;;;;23.23;13.48;;;-0.90;99.90;;;;;;5072628;28;20035;-64
2021/01/10 04:08:54;;;;;;;25.02;12.43;;;-0.90;99.90;;;;;;5072380;28;20035;-64
2021/01/10 04:11:21;;;;;;;25.63;14.13;;;-1.00;99.90;;;;;;5072488;28;20050;-63
2021/01/10 04:13:46;;;;;;;28.58;15.27;;;-0.90;99.90;;;;;;5072178;28;20044;-65
2021/01/10 04:16:12;;;;;;;27.52;14.60;;;-1.00;99.90;;;;;;5072180;28;20032;-64
2021/01/10 04:18:38;;;;;;;23.63;13.65;;;-1.00;99.90;;;;;;5072522;28;20528;-64
2021/01/10 04:21:04;;;;;;;23.55;12.57;;;-1.10;99.90;;;;;;5081179;28;20051;-63
2021/01/10 04:23:30;;;;;;;21.77;13.05;;;-1.10;99.90;;;;;;5077425;28;20036;-64
2021/01/10 04:25:56;;;;;;;24.35;13.45;;;-1.00;99.90;;;;;;5072486;28;20031;-63
2021/01/10 04:28:21;;;;;;;23.60;13.30;;;-1.00;99.90;;;;;;5072492;28;20075;-63
2021/01/10 04:30:47;;;;;;;23.45;12.27;;;-0.90;99.90;;;;;;5072012;28;20028;-64
2021/01/10 04:33:13;;;;;;;19.92;11.85;;;-0.90;99.90;;;;;;5071018;28;20037;-63
2021/01/10 04:35:38;;;;;;;21.63;12.48;;;-0.90;99.90;;;;;;5071034;28;20433;-64
2021/01/10 04:38:04;;;;;;;21.02;11.75;;;-0.90;99.90;;;;;;5070680;28;20024;-64
2021/01/10 04:40:30;;;;;;;19.27;11.13;;;-0.90;99.90;;;;;;5071417;28;20024;-64
2021/01/10 04:42:57;;;;;;;21.65;11.63;;;-0.80;99.90;;;;;;5070572;28;20020;-62
2021/01/10 04:45:23;;;;;;;19.45;11.05;;;-0.80;99.90;;;;;;5070504;28;20111;-63
2021/01/10 04:47:49;;;;;;;20.48;12.13;;;-0.80;99.90;;;;;;5070365;28;20163;-64
2021/01/10 04:50:16;;;;;;;20.52;11.68;;;-0.80;99.90;;;;;;5070306;28;20024;-64
2021/01/10 04:52:42;;;;;;;19.65;11.82;;;-0.70;99.90;;;;;;5051692;28;20520;-64
2021/01/10 04:55:09;;;;;;;20.23;10.98;;;-0.80;99.90;;;;;;5070182;28;20128;-64
2021/01/10 04:57:35;;;;;;;19.02;10.75;;;-0.80;99.90;;;;;;5069620;28;20457;-64
2021/01/10 05:00:08;;;;;;;20.33;10.80;;;-0.70;99.90;;;;;;5070318;28;20513;-63
2021/01/10 05:02:44;;;;;;;18.83;10.57;;;-0.70;99.90;;;;;;5070697;28;20067;-64
2021/01/10 05:05:11;;;;;;;16.42;10.20;;;-0.70;99.90;;;;;;5070661;28;20431;-63
2021/01/10 05:07:36;;;;;;;18.63;10.85;;;-0.70;99.90;;;;;;5070496;28;20093;-64
2021/01/10 05:10:03;;;;;;;17.35;10.73;;;-0.70;99.90;;;;;;5070143;28;20028;-64
2021/01/10 05:12:28;;;;;;;15.55;9.88;;;-0.70;99.90;;;;;;5070105;28;20425;-64
2021/01/10 05:14:54;;;;;;;16.80;10.88;;;-0.70;99.90;;;;;;5069052;28;20100;-64
2021/01/10 05:17:20;;;;;;;16.08;9.75;;;-0.70;99.90;;;;;;5070957;28;20017;-64
2021/01/10 05:19:47;;;;;;;14.50;9.40;;;-0.70;99.90;;;;;;5071175;28;20040;-64
2021/01/10 05:22:13;;;;;;;16.15;9.65;;;-0.70;99.90;;;;;;5071184;28;20025;-64
2021/01/10 05:24:38;;;;;;;12.95;8.85;;;-0.70;99.90;;;;;;5051521;28;20159;-65
2021/01/10 05:27:04;;;;;;;17.33;9.45;;;-0.80;99.90;;;;;;5069407;28;20159;-64
2021/01/10 05:29:30;;;;;;;13.93;9.00;;;-0.70;99.90;;;;;;5069658;28;20032;-63
2021/01/10 05:31:56;;;;;;;15.88;9.40;;;-0.70;99.90;;;;;;5069680;28;20032;-64
2021/01/10 05:34:24;;;;;;;14.30;9.18;;;-0.80;99.90;;;;;;5068999;28;20040;-64
2021/01/10 05:36:50;;;;;;;15.77;9.75;;;-0.70;99.90;;;;;;5069489;28;20040;-64
2021/01/10 05:39:18;;;;;;;16.50;9.38;;;-0.70;99.90;;;;;;5069750;28;20025;-64
2021/01/10 05:42:05;;;;;;;15.55;9.52;;;-0.70;99.90;;;;;;5051325;28;20021;-64
2021/01/10 05:44:46;;;;;;;16.15;9.10;;;-0.70;99.90;;;;;;5069096;28;20139;-63
2021/01/10 05:47:14;;;;;;;16.07;9.37;;;-0.60;99.90;;;;;;5069625;28;20024;-63
2021/01/10 05:49:49;;;;;;;16.13;9.40;;;-0.60;99.90;;;;;;5069638;28;20277;-64
2021/01/10 05:52:16;;;;;;;13.93;8.95;;;-0.70;99.90;;;;;;5068826;28;20028;-65
2021/01/10 05:54:46;;;;;;;14.07;9.13;;;-0.60;99.90;;;;;;5068738;28;20040;-64
2021/01/10 05:57:14;;;;;;;14.55;8.70;;;-0.50;99.90;;;;;;5069545;28;20518;-63
2021/01/10 05:59:47;;;;;;;16.35;9.30;;;-0.60;99.90;;;;;;5070060;28;20474;-64
2021/01/10 06:02:13;;;;;;;16.98;9.73;;;-0.60;99.90;;;;;;5069297;28;20035;-64
2021/01/10 06:04:39;;;;;;;15.50;9.40;;;-0.60;99.90;;;;;;5069040;28;20028;-64
2021/01/10 06:07:05;;;;;;;13.30;8.82;;;-0.50;99.90;;;;;;5051303;28;20024;-64
2021/01/10 06:09:47;;;;;;;14.77;9.15;;;-0.50;99.90;;;;;;5069364;28;20490;-64
2021/01/10 06:12:23;;;;;;;15.57;9.00;;;-0.60;99.90;;;;;;5068947;28;20029;-64
2021/01/10 06:14:50;;;;;;;11.70;8.13;;;-0.60;99.90;;;;;;5068521;28;20032;-64
2021/01/10 06:17:16;;;;;;;13.95;8.75;;;-0.60;99.90;;;;;;5069097;28;20037;-64
2021/01/10 06:19:44;;;;;;;14.13;8.75;;;-0.50;99.90;;;;;;5069378;28;20059;-64
2021/01/10 06:22:16;;;;;;;13.82;8.23;;;-0.50;99.90;;;;;;5071487;28;20445;-64
2021/01/10 06:24:46;;;;;;;14.48;9.05;;;-0.50;99.90;;;;;;5072614;28;20470;-63
2021/01/10 06:27:22;;;;;;;11.80;7.95;;;-0.50;99.90;;;;;;5072902;28;20040;-64
2021/01/10 06:29:54;;;;;;;15.40;8.70;;;-0.50;99.90;;;;;;5073166;28;20020;-64
2021/01/10 06:32:24;;;;;;;11.82;7.28;;;-0.50;99.90;;;;;;5065731;28;20138;-66
2021/01/10 06:34:51;;;;;;;15.60;8.32;;;-0.50;99.90;;;;;;5069627;28;20096;-66
2021/01/10 06:37:18;;;;;;;11.88;6.97;;;-0.50;99.90;;;;;;5072708;28;20025;-64
2021/01/10 06:39:48;;;;;;;10.80;7.53;;;-0.50;99.90;;;;;;5072332;28;20031;-66
2021/01/10 06:42:15;;;;;;;12.68;7.57;;;-0.50;99.90;;;;;;5072325;28;20508;-65
2021/01/10 06:44:47;;;;;;;12.93;7.75;;;-0.40;99.90;;;;;;5071599;28;20024;-65
2021/01/10 06:47:17;;;;;;;11.00;7.88;;;-0.50;99.90;;;;;;5068450;28;20075;-65
2021/01/10 06:49:43;;;;;;;10.75;7.10;;;-0.50;99.90;;;;;;5052716;28;20078;-65
2021/01/10 06:52:11;;;;;;;10.35;6.78;;;-0.50;99.90;;;;;;5050141;28;20112;-65
2021/01/10 06:54:44;;;;;;;11.25;7.47;;;-0.50;99.90;;;;;;5071593;28;20021;-66
2021/01/10 06:57:11;;;;;;;13.07;7.18;;;-0.50;99.90;;;;;;5072240;28;20025;-65
2021/01/10 06:59:57;;;;;;;12.55;7.43;;;-0.40;99.90;;;;;;5072583;28;20496;-65
2021/01/10 07:02:23;;;;;;;13.30;8.30;;;-0.40;99.90;;;;;;5072228;28;20503;-66
2021/01/10 07:04:49;;;;;;;11.85;8.00;;;-0.40;99.90;;;;;;5071083;28;20073;-65
2021/01/10 07:07:38;;;;;;;11.55;7.25;;;-0.40;99.90;;;;;;5073366;28;20504;-67
2021/01/10 07:10:07;;;;;;;11.88;7.35;;;-0.40;99.90;;;;;;5070293;28;20628;-66
2021/01/10 07:12:32;;;;;;;13.70;7.35;;;-0.40;99.90;;;;;;5052806;28;20029;-65
2021/01/10 07:15:23;;;;;;;11.13;7.40;;;-0.50;99.90;;;;;;5052215;28;20475;-66
2021/01/10 07:18:15;;;;;;;11.20;7.68;;;-0.30;99.90;;;;;;5053251;28;20506;-66
2021/01/10 07:20:43;;;;;;;10.52;6.75;;;-0.40;99.90;;;;;;5049671;28;20446;-66
2021/01/10 07:23:26;;;;;;;12.13;7.82;;;-0.30;99.90;;;;;;5052689;28;20029;-66
2021/01/10 07:25:52;;;;;;;11.43;7.38;;;-0.40;99.90;;;;;;5053280;28;20096;-66
2021/01/10 07:28:43;;;;;;;12.93;7.60;;;-0.30;99.90;;;;;;5065408;28;20176;-65
2021/01/10 07:31:18;;;;;;;16.17;10.20;;;-0.30;99.90;;;;;;5071225;28;20021;-65
2021/01/10 07:33:44;;;;;;;17.27;9.75;;;-0.20;99.90;;;;;;5071027;28;20016;-67
2021/01/10 07:36:11;;;;;;;14.52;8.10;;;-0.20;99.90;;;;;;5072665;28;20028;-67
2021/01/10 07:38:39;;;;;;;13.43;8.90;;;-0.20;99.90;;;;;;5072960;28;20559;-68
2021/01/10 07:41:24;;;;;;;15.68;8.98;;;-0.10;99.90;;;;;;5073677;28;20035;-67
2021/01/10 07:43:54;;;;;;;12.75;9.00;;;-0.20;99.90;;;;;;5062671;28;20020;-73
2021/01/10 07:46:49;;;;;;;12.50;8.02;;;-0.10;99.90;;;;;;5063230;28;20021;-72
2021/01/10 07:49:18;;;;;;;12.63;8.43;;;-0.20;99.90;;;;;;5054747;28;20037;-75
2021/01/10 07:51:47;;;;;;;11.00;7.70;;;-0.10;99.90;;;;;;5062016;28;20024;-71
2021/01/10 07:54:14;;;;;;;12.80;7.72;;;-0.10;99.90;;;;;;5060845;28;20229;-71
2021/01/10 07:56:39;;;;;;;14.57;8.88;;;0.00;99.90;;;;;;5058897;28;20096;-72
2021/01/10 07:59:18;;;;;;;18.42;10.40;;;0.00;99.90;;;;;;5059628;28;20105;-71
2021/01/10 08:02:01;;;;;;;14.32;9.57;;;-0.10;99.90;;;;;;5061875;28;20021;-72
2021/01/10 08:04:30;;;;;;;18.48;11.35;;;-0.10;99.90;;;;;;5061873;28;20021;-72
2021/01/10 08:06:57;;;;;;;17.05;10.65;;;0.00;99.90;;;;;;5041153;28;20112;-72
2021/01/10 08:09:32;;;;;;;17.15;10.77;;;-0.10;99.90;;;;;;5043072;28;20028;-70
2021/01/10 08:12:01;;;;;;;16.42;10.77;;;-0.10;99.90;;;;;;5061400;28;20100;-71
2021/01/10 08:14:27;;;;;;;18.67;10.80;;;0.00;99.90;;;;;;5059336;28;20020;-71
2021/01/10 08:16:53;;;;;;;20.92;11.25;;;0.00;99.90;;;;;;5062169;28;20024;-66
2021/01/10 08:19:19;;;;;;;17.15;9.77;;;0.10;99.90;;;;;;5072354;28;20554;-65
2021/01/10 08:21:45;;;;;;;15.13;10.00;;;0.10;99.90;;;;;;5072240;28;20032;-69
2021/01/10 08:24:11;;;;;;;18.42;11.65;;;0.30;99.90;;;;;;5071490;28;20020;-69
2021/01/10 08:26:41;;;;;;;14.98;10.07;;;0.50;99.90;;;;;;5071648;28;20028;-69
2021/01/10 08:29:08;;;;;;;15.50;9.55;;;1.00;99.90;;;;;;5052371;28;20033;-68
2021/01/10 08:31:35;;;;;;;14.25;9.48;;;1.20;99.90;;;;;;5052164;28;20032;-66
2021/01/10 08:34:01;;;;;;;13.80;9.13;;;1.20;99.90;;;;;;5051235;28;20030;-66
2021/01/10 08:36:27;;;;;;;13.60;8.73;;;1.20;99.90;;;;;;5050925;28;20017;-68
2021/01/10 08:39:04;;;;;;;13.13;9.05;;;1.10;99.90;;;;;;5055391;28;20032;-67
2021/01/10 08:41:32;;;;;;;15.45;10.93;;;1.00;99.90;;;;;;5035135;28;20524;-66
2021/01/10 08:44:14;;;;;;;13.90;9.23;;;1.10;99.90;;;;;;5051025;28;20496;-69
2021/01/10 08:46:47;;;;;;;13.50;9.55;;;1.10;99.90;;;;;;5052205;28;20039;-66
2021/01/10 08:49:24;;;;;;;13.27;8.80;;;1.10;99.90;;;;;;5051880;28;20029;-67
2021/01/10 08:51:50;;;;;;;15.40;10.00;;;1.20;99.90;;;;;;5051767;28;20021;-67
2021/01/10 08:54:17;;;;;;;15.40;10.30;;;1.00;99.90;;;;;;5050787;28;20032;-67
2021/01/10 08:56:44;;;;;;;14.27;9.00;;;1.30;99.90;;;;;;5050618;28;20067;-66
2021/01/10 08:59:11;;;;;;;14.35;9.27;;;1.30;99.90;;;;;;5053442;28;20426;-67
2021/01/10 09:01:37;;;;;;;15.07;9.38;;;1.20;99.90;;;;;;5052517;28;20021;-68
2021/01/10 09:04:13;;;;;;;11.60;8.15;;;1.30;99.90;;;;;;5051826;28;20028;-68
2021/01/10 09:07:10;;;;;;;14.40;8.50;;;1.40;99.90;;;;;;5053014;28;20040;-68
2021/01/10 09:09:39;;;;;;;12.52;8.55;;;1.60;99.90;;;;;;5054095;28;20029;-67
2021/01/10 09:12:20;;;;;;;14.25;8.65;;;1.90;99.90;;;;;;5072227;28;20033;-67
2021/01/10 09:14:54;;;;;;;13.48;8.68;;;2.20;99.90;;;;;;5070772;28;20020;-68
2021/01/10 09:17:26;;;;;;;15.05;9.95;;;2.70;99.90;;;;;;5071115;28;20138;-68
2021/01/10 09:19:55;;;;;;;11.00;6.78;;;2.80;99.90;;;;;;5071528;28;20032;-67
2021/01/10 09:22:27;;;;;;;13.52;8.98;;;2.70;99.90;;;;;;5071385;28;20027;-67
2021/01/10 09:24:52;;;;;;;10.80;8.30;;;2.70;99.90;;;;;;5070489;28;20031;-68
2021/01/10 09:27:18;;;;;;;11.57;8.27;;;2.90;99.90;;;;;;5070709;28;20036;-68
2021/01/10 09:29:44;;;;;;;11.52;8.68;;;3.20;99.90;;;;;;5071533;28;20466;-69
2021/01/10 09:32:19;;;;;;;11.23;7.72;;;3.10;99.90;;;;;;5072286;28;20047;-69
2021/01/10 09:34:45;;;;;;;11.48;8.18;;;3.80;99.90;;;;;;5070034;28;20385;-63
2021/01/10 09:37:11;;;;;;;11.05;8.15;;;4.60;99.90;;;;;;5070753;28;20037;-63
2021/01/10 09:39:44;;;;;;;10.00;7.75;;;5.90;99.90;;;;;;5071523;28;20025;-63
2021/01/10 09:42:11;;;;;;;9.75;7.57;;;6.60;99.90;;;;;;5066435;28;20029;-63
2021/01/10 09:44:37;;;;;;;9.27;7.60;;;6.30;99.90;;;;;;5062110;28;20062;-64
2021/01/10 09:47:04;;;;;;;10.75;8.18;;;6.00;99.90;;;;;;5062325;28;20028;-63
2021/01/10 09:49:30;;;;;;;11.85;8.40;;;5.70;99.90;;;;;;5070756;28;20425;-63
2021/01/10 09:52:02;;;;;;;10.98;7.97;;;5.70;99.90;;;;;;5066504;28;20086;-63
2021/01/10 09:54:33;;;;;;;12.05;8.07;;;6.50;99.90;;;;;;5061832;28;20074;-63
2021/01/10 09:56:59;;;;;;;9.48;7.75;;;7.20;99.90;;;;;;5070560;28;20088;-66
2021/01/10 09:59:34;;;;;;;11.70;9.27;;;6.80;99.90;;;;;;5070952;28;20020;-63
2021/01/10 10:02:07;;;;;;;11.25;7.55;;;7.10;99.20;;;;;;5071132;28;20031;-63
2021/01/10 10:04:32;;;;;;;10.32;7.22;;;8.40;97.40;;;;;;5070376;28;20044;-61
2021/01/10 10:06:58;;;;;;;9.43;7.57;;;8.10;95.70;;;;;;5071009;28;20038;-62
2021/01/10 10:09:50;;;;;;;9.40;7.13;;;10.30;93.30;;;;;;5071192;28;20029;-62
2021/01/10 10:12:16;;;;;;;8.63;7.50;;;10.00;91.70;;;;;;5050564;28;20025;-63
2021/01/10 10:14:54;;;;;;;8.85;7.47;;;9.40;91.20;;;;;;5049741;28;20102;-63
2021/01/10 10:17:21;;;;;;;8.38;6.70;;;10.00;90.10;;;;;;5050420;28;20100;-63
2021/01/10 10:19:48;;;;;;;10.00;7.22;;;12.40;83.20;;;;;;5050490;28;20029;-63
2021/01/10 10:22:28;;;;;;;8.30;6.60;;;14.60;71.70;;;;;;5050791;28;20048;-63
2021/01/10 10:24:55;;;;;;;8.98;6.63;;;14.30;67.30;;;;;;5050340;28;20104;-64
2021/01/10 10:27:21;;;;;;;7.82;6.28;;;16.00;63.70;;;;;;5050327;28;20025;-63
2021/01/10 10:29:47;;;;;;;6.07;5.55;;;17.10;59.10;;;;;;5050937;28;20025;-62
2021/01/10 10:32:13;;;;;;;6.78;6.18;;;16.10;56.00;;;;;;5051109;28;20043;-63
2021/01/10 10:34:39;;;;;;;6.60;6.00;;;16.60;55.20;;;;;;5050413;28;20025;-61
2021/01/10 10:37:07;;;;;;;7.43;5.82;;;16.30;56.90;;;;;;5033040;28;20380;-62
2021/01/10 10:39:33;;;;;;;8.85;6.13;;;17.10;52.90;;;;;;5051860;28;20017;-62
2021/01/10 10:41:59;;;;;;;7.30;6.57;;;17.70;53.70;;;;;;5070488;28;20047;-63
2021/01/10 10:44:24;;;;;;;5.60;5.13;;;18.70;52.30;;;;;;5069661;28;20021;-63
2021/01/10 10:46:50;;;;;;;5.30;4.80;;;18.60;49.70;;;;;;5070462;28;20043;-65
2021/01/10 10:49:16;;;;;;;5.45;5.03;;;18.60;48.10;;;;;;5066876;28;20457;-63
2021/01/10 10:51:41;;;;;;;6.00;5.40;;;18.20;50.10;;;;;;5064939;28;20025;-65
2021/01/10 10:54:09;;;;;;;5.43;4.90;;;18.50;48.90;;;;;;5058748;28;20127;-63
2021/01/10 10:56:45;;;;;;;5.55;5.05;;;18.00;48.90;;;;;;5060638;28;20032;-65
2021/01/10 10:59:10;;;;;;;5.68;4.78;;;17.10;47.80;;;;;;5070550;28;20025;-64
2021/01/10 11:01:44;;;;;;;4.57;4.18;;;15.90;50.10;;;;;;5069882;28;20165;-67
2021/01/10 11:04:10;;;;;;;4.50;4.10;;;15.90;50.80;;;;;;5069786;28;20382;-64
2021/01/10 11:06:37;;;;;;;4.70;4.22;;;14.20;52.20;;;;;;5070279;28;20020;-64
2021/01/10 11:09:05;;;;;;;4.97;3.80;;;13.30;54.90;;;;;;5059000;28;20025;-66
2021/01/10 11:11:38;;;;;;;5.60;5.10;;;13.50;55.60;;;;;;5070093;28;20032;-65
2021/01/10 11:14:04;;;;;;;8.20;4.93;;;14.70;53.00;;;;;;5066200;28;20339;-67
2021/01/10 11:16:36;;;;;;;6.50;4.78;;;15.20;51.20;;;;;;5063695;28;20036;-67
2021/01/10 11:19:04;;;;;;;6.10;5.40;;;13.30;53.80;;;;;;5065262;28;20108;-66
2021/01/10 11:21:41;;;;;;;8.88;4.78;;;13.00;56.50;;;;;;5060652;28;20021;-65
2021/01/10 11:24:08;;;;;;;5.32;4.75;;;13.90;53.90;;;;;;5060029;28;20426;-66
2021/01/10 11:26:35;;;;;;;5.53;4.35;;;14.00;54.70;;;;;;5063788;28;20102;-66
2021/01/10 11:29:00;;;;;;;9.13;5.50;;;13.50;54.40;;;;;;5062260;28;20034;-66
2021/01/10 11:31:27;;;;;;;6.32;4.85;;;15.10;53.40;;;;;;5060907;28;20025;-66
2021/01/10 11:33:53;;;;;;;7.00;5.47;;;15.90;51.70;;;;;;5061690;28;20017;-66
2021/01/10 11:36:19;;;;;;;6.40;4.70;;;15.70;50.80;;;;;;5061767;28;20410;-66
2021/01/10 11:38:50;;;;;;;5.75;4.78;;;14.90;51.90;;;;;;5060480;28;20017;-66
2021/01/10 11:41:17;;;;;;;9.50;5.35;;;15.30;51.40;;;;;;5045498;28;20051;-67
2021/01/10 11:43:43;;;;;;;5.75;4.78;;;15.80;51.10;;;;;;5060163;28;20032;-66
2021/01/10 11:46:09;;;;;;;7.38;5.45;;;14.90;51.30;;;;;;5062745;28;20064;-67
2021/01/10 11:48:37;;;;;;;6.32;4.93;;;15.60;50.80;;;;;;5061892;28;20016;-66
2021/01/10 11:51:05;;;;;;;5.78;4.47;;;14.10;52.30;;;;;;5078157;22;20397;-73
2021/01/10 11:53:31;;;;;;;9.85;5.45;;;13.90;53.00;;;;;;5062136;28;20083;-75
2021/01/10 11:55:58;;;;;;;8.00;5.55;;;13.20;54.40;;;;;;5064815;28;20017;-75
2021/01/10 11:58:24;;;;;;;10.65;6.40;;;12.20;57.10;;;;;;5062973;28;20142;-74
2021/01/10 12:00:53;;;;;;;6.78;6.13;;;12.60;56.50;;;;;;5042422;28;20102;-74
2021/01/10 12:03:20;;;;;;;7.47;5.70;;;12.70;56.40;;;;;;5045915;28;20049;-74
2021/01/10 12:05:46;;;;;;;6.32;5.72;;;12.40;57.60;;;;;;5018083;28;20029;-70
2021/01/10 12:08:13;;;;;;;6.65;6.05;;;12.40;58.70;;;;;;5034505;28;20511;-71
2021/01/10 12:10:39;;;;;;;8.02;6.40;;;13.40;57.10;;;;;;5033832;28;20033;-73
2021/01/10 12:13:05;;;;;;;8.07;6.88;;;12.50;57.90;;;;;;5033483;28;20034;-70
2021/01/10 12:15:35;;;;;;;8.15;6.20;;;13.60;57.30;;;;;;5050841;28;20637;-71
2021/01/10 12:18:04;;;;;;;7.78;6.65;;;14.80;54.30;;;;;;5054000;28;20037;-71
2021/01/10 12:20:31;;;;;;;6.70;6.00;;;15.00;54.50;;;;;;5053382;28;20036;-71
2021/01/10 12:22:56;;;;;;;7.40;6.00;;;15.20;53.90;;;;;;5052742;28;20991;-70
2021/01/10 12:25:23;;;;;;;9.70;5.78;;;15.30;53.10;;;;;;5054555;28;20051;-72
2021/01/10 12:27:49;;;;;;;7.03;6.32;;;13.50;70.40;;;;;;5053920;28;20094;-69
2021/01/10 12:30:15;;;;;;;7.10;6.40;;;13.00;60.30;;;;;;5036674;28;20033;-71
2021/01/10 12:32:41;;;;;;;8.20;6.45;;;12.90;66.80;;;;;;5036189;28;20029;-73
2021/01/10 12:35:15;;;;;;;6.35;5.75;;;14.30;58.60;;;;;;5036510;28;20120;-70
2021/01/10 12:37:41;;;;;;;6.35;5.50;;;13.80;57.20;;;;;;5055455;28;20035;-71
2021/01/10 12:40:09;;;;;;;6.25;5.68;;;12.50;58.90;;;;;;5055923;28;20029;-70
2021/01/10 12:42:35;;;;;;;8.52;5.97;;;12.00;58.90;;;;;;5055920;28;20055;-70
2021/01/10 12:45:01;;;;;;;12.90;7.68;;;11.80;61.90;;;;;;5056215;28;20021;-70